sensor_id;sensor_type;location;lat;lon;timestamp;P1;durP1;ratioP1;P2;durP2;ratioP2
3567;SDS011;1798;48.486;9.232;2024-01-06T00:01:19;19.00;;;7.10;;
3567;SDS011;1798;48.486;9.232;2024-01-06T00:03:46;18.07;;;6.43;;
3567;SDS011;1798;48.486;9.232;2024-01-06T00:06:12;10.47;;;5.70;;
3567;SDS011;1798;48.486;9.232;2024-01-06T00:08:39;21.07;;;7.80;;
3567;SDS011;1798;48.486;9.232;2024-01-06T00:11:06;15.20;;;6.37;;
3567;SDS011;1798;48.486;9.232;2024-01-06T00:13:32;11.80;;;6.60;;
3567;SDS011;1798;48.486;9.232;2024-01-06T00:16:01;13.20;;;6.60;;
3567;SDS011;1798;48.486;9.232;2024-01-06T00:18:28;12.03;;;6.40;;
3567;SDS011;1798;48.486;9.232;2024-01-06T00:20:54;8.33;;;5.00;;
3567;SDS011;1798;48.486;9.232;2024-01-06T00:23:21;18.53;;;6.20;;
3567;SDS011;1798;48.486;9.232;2024-01-06T00:25:48;12.57;;;6.23;;
3567;SDS011;1798;48.486;9.232;2024-01-06T00:28:15;16.60;;;5.70;;
3567;SDS011;1798;48.486;9.232;2024-01-06T00:30:41;13.60;;;5.77;;
3567;SDS011;1798;48.486;9.232;2024-01-06T00:33:09;11.37;;;5.47;;
3567;SDS011;1798;48.486;9.232;2024-01-06T00:35:36;22.03;;;6.00;;
3567;SDS011;1798;48.486;9.232;2024-01-06T00:38:03;8.17;;;4.67;;
3567;SDS011;1798;48.486;9.232;2024-01-06T00:40:29;14.27;;;5.87;;
3567;SDS011;1798;48.486;9.232;2024-01-06T00:42:57;14.87;;;5.77;;
3567;SDS011;1798;48.486;9.232;2024-01-06T00:45:24;19.73;;;5.20;;
3567;SDS011;1798;48.486;9.232;2024-01-06T00:47:50;10.57;;;5.93;;
3567;SDS011;1798;48.486;9.232;2024-01-06T00:50:18;8.47;;;4.70;;
3567;SDS011;1798;48.486;9.232;2024-01-06T00:52:45;21.93;;;6.17;;
3567;SDS011;1798;48.486;9.232;2024-01-06T00:55:11;10.37;;;4.37;;
3567;SDS011;1798;48.486;9.232;2024-01-06T00:57:38;11.20;;;4.87;;
3567;SDS011;1798;48.486;9.232;2024-01-06T01:00:05;24.40;;;5.43;;
3567;SDS011;1798;48.486;9.232;2024-01-06T01:02:32;16.40;;;6.13;;
3567;SDS011;1798;48.486;9.232;2024-01-06T01:04:59;13.70;;;5.37;;
3567;SDS011;1798;48.486;9.232;2024-01-06T01:07:28;8.87;;;4.73;;
3567;SDS011;1798;48.486;9.232;2024-01-06T01:09:55;10.17;;;5.00;;
3567;SDS011;1798;48.486;9.232;2024-01-06T01:12:23;17.80;;;5.67;;
3567;SDS011;1798;48.486;9.232;2024-01-06T01:14:49;8.63;;;4.30;;
3567;SDS011;1798;48.486;9.232;2024-01-06T01:17:16;11.07;;;4.70;;
3567;SDS011;1798;48.486;9.232;2024-01-06T01:19:43;12.07;;;4.90;;
3567;SDS011;1798;48.486;9.232;2024-01-06T01:22:10;7.90;;;4.57;;
3567;SDS011;1798;48.486;9.232;2024-01-06T01:24:38;11.53;;;4.43;;
3567;SDS011;1798;48.486;9.232;2024-01-06T01:27:04;13.27;;;5.70;;
3567;SDS011;1798;48.486;9.232;2024-01-06T01:29:31;8.73;;;4.10;;
3567;SDS011;1798;48.486;9.232;2024-01-06T01:31:58;10.47;;;4.80;;
3567;SDS011;1798;48.486;9.232;2024-01-06T01:34:24;6.60;;;4.03;;
3567;SDS011;1798;48.486;9.232;2024-01-06T01:36:51;7.80;;;4.40;;
3567;SDS011;1798;48.486;9.232;2024-01-06T01:39:18;14.77;;;4.33;;
3567;SDS011;1798;48.486;9.232;2024-01-06T01:41:46;8.63;;;4.40;;
3567;SDS011;1798;48.486;9.232;2024-01-06T01:44:12;15.87;;;4.60;;
3567;SDS011;1798;48.486;9.232;2024-01-06T01:46:39;8.90;;;4.37;;
3567;SDS011;1798;48.486;9.232;2024-01-06T01:49:06;8.30;;;4.43;;
3567;SDS011;1798;48.486;9.232;2024-01-06T01:51:34;7.90;;;4.70;;
3567;SDS011;1798;48.486;9.232;2024-01-06T01:54:01;13.77;;;4.70;;
3567;SDS011;1798;48.486;9.232;2024-01-06T01:56:28;7.97;;;4.37;;
3567;SDS011;1798;48.486;9.232;2024-01-06T01:59:00;8.43;;;4.43;;
3567;SDS011;1798;48.486;9.232;2024-01-06T02:01:27;15.10;;;5.30;;
3567;SDS011;1798;48.486;9.232;2024-01-06T02:03:54;12.70;;;5.70;;
3567;SDS011;1798;48.486;9.232;2024-01-06T02:06:21;15.90;;;5.23;;
3567;SDS011;1798;48.486;9.232;2024-01-06T02:08:47;9.40;;;4.77;;
3567;SDS011;1798;48.486;9.232;2024-01-06T02:11:14;12.53;;;5.37;;
3567;SDS011;1798;48.486;9.232;2024-01-06T02:13:41;13.83;;;5.03;;
3567;SDS011;1798;48.486;9.232;2024-01-06T02:16:08;10.00;;;4.03;;
3567;SDS011;1798;48.486;9.232;2024-01-06T02:18:35;13.40;;;4.90;;
3567;SDS011;1798;48.486;9.232;2024-01-06T02:21:02;9.60;;;5.10;;
3567;SDS011;1798;48.486;9.232;2024-01-06T02:23:30;15.10;;;5.57;;
3567;SDS011;1798;48.486;9.232;2024-01-06T02:25:57;10.27;;;5.10;;
3567;SDS011;1798;48.486;9.232;2024-01-06T02:28:23;25.10;;;5.20;;
3567;SDS011;1798;48.486;9.232;2024-01-06T02:30:50;7.80;;;4.57;;
3567;SDS011;1798;48.486;9.232;2024-01-06T02:33:19;16.77;;;5.50;;
3567;SDS011;1798;48.486;9.232;2024-01-06T02:35:45;8.43;;;4.60;;
3567;SDS011;1798;48.486;9.232;2024-01-06T02:38:12;9.70;;;5.23;;
3567;SDS011;1798;48.486;9.232;2024-01-06T02:40:40;19.70;;;5.90;;
3567;SDS011;1798;48.486;9.232;2024-01-06T02:43:07;11.23;;;5.43;;
3567;SDS011;1798;48.486;9.232;2024-01-06T02:45:34;12.97;;;5.67;;
3567;SDS011;1798;48.486;9.232;2024-01-06T02:48:00;10.97;;;5.00;;
3567;SDS011;1798;48.486;9.232;2024-01-06T02:50:27;14.30;;;6.27;;
3567;SDS011;1798;48.486;9.232;2024-01-06T02:52:54;12.60;;;5.90;;
3567;SDS011;1798;48.486;9.232;2024-01-06T02:55:20;14.67;;;6.30;;
3567;SDS011;1798;48.486;9.232;2024-01-06T02:57:48;16.50;;;7.17;;
3567;SDS011;1798;48.486;9.232;2024-01-06T03:00:15;12.90;;;6.27;;
3567;SDS011;1798;48.486;9.232;2024-01-06T03:02:42;11.80;;;6.27;;
3567;SDS011;1798;48.486;9.232;2024-01-06T03:05:08;14.73;;;6.20;;
3567;SDS011;1798;48.486;9.232;2024-01-06T03:07:35;11.47;;;6.10;;
3567;SDS011;1798;48.486;9.232;2024-01-06T03:10:02;11.00;;;7.00;;
3567;SDS011;1798;48.486;9.232;2024-01-06T03:12:29;16.23;;;6.30;;
3567;SDS011;1798;48.486;9.232;2024-01-06T03:14:57;12.07;;;7.00;;
3567;SDS011;1798;48.486;9.232;2024-01-06T03:17:24;15.37;;;8.07;;
3567;SDS011;1798;48.486;9.232;2024-01-06T03:19:51;13.83;;;7.70;;
3567;SDS011;1798;48.486;9.232;2024-01-06T03:22:17;15.43;;;5.70;;
3567;SDS011;1798;48.486;9.232;2024-01-06T03:24:44;13.07;;;7.00;;
3567;SDS011;1798;48.486;9.232;2024-01-06T03:27:11;12.43;;;6.73;;
3567;SDS011;1798;48.486;9.232;2024-01-06T03:29:37;11.53;;;5.93;;
3567;SDS011;1798;48.486;9.232;2024-01-06T03:32:06;12.27;;;5.70;;
3567;SDS011;1798;48.486;9.232;2024-01-06T03:34:32;12.10;;;6.70;;
3567;SDS011;1798;48.486;9.232;2024-01-06T03:36:59;25.30;;;6.77;;
3567;SDS011;1798;48.486;9.232;2024-01-06T03:39:25;15.97;;;6.50;;
3567;SDS011;1798;48.486;9.232;2024-01-06T03:41:52;20.10;;;6.77;;
3567;SDS011;1798;48.486;9.232;2024-01-06T03:44:19;14.17;;;6.53;;
3567;SDS011;1798;48.486;9.232;2024-01-06T03:46:45;11.27;;;6.07;;
3567;SDS011;1798;48.486;9.232;2024-01-06T03:49:13;21.27;;;7.17;;
3567;SDS011;1798;48.486;9.232;2024-01-06T03:51:40;16.10;;;6.60;;
3567;SDS011;1798;48.486;9.232;2024-01-06T03:54:06;11.63;;;7.20;;
3567;SDS011;1798;48.486;9.232;2024-01-06T03:56:33;9.57;;;6.27;;
3567;SDS011;1798;48.486;9.232;2024-01-06T03:59:00;13.30;;;6.70;;
3567;SDS011;1798;48.486;9.232;2024-01-06T04:01:26;15.77;;;6.60;;
3567;SDS011;1798;48.486;9.232;2024-01-06T04:03:53;19.27;;;6.70;;
3567;SDS011;1798;48.486;9.232;2024-01-06T04:06:21;8.60;;;5.17;;
3567;SDS011;1798;48.486;9.232;2024-01-06T04:08:47;15.10;;;6.80;;
3567;SDS011;1798;48.486;9.232;2024-01-06T04:11:15;10.57;;;5.97;;
3567;SDS011;1798;48.486;9.232;2024-01-06T04:13:42;24.43;;;7.13;;
3567;SDS011;1798;48.486;9.232;2024-01-06T04:16:08;16.07;;;6.77;;
3567;SDS011;1798;48.486;9.232;2024-01-06T04:18:35;11.87;;;5.97;;
3567;SDS011;1798;48.486;9.232;2024-01-06T04:21:02;29.17;;;7.30;;
3567;SDS011;1798;48.486;9.232;2024-01-06T04:23:31;14.63;;;5.67;;
3567;SDS011;1798;48.486;9.232;2024-01-06T04:25:58;21.73;;;6.63;;
3567;SDS011;1798;48.486;9.232;2024-01-06T04:28:24;35.87;;;6.60;;
3567;SDS011;1798;48.486;9.232;2024-01-06T04:30:51;13.40;;;6.07;;
3567;SDS011;1798;48.486;9.232;2024-01-06T04:33:17;13.60;;;6.67;;
3567;SDS011;1798;48.486;9.232;2024-01-06T04:35:44;14.00;;;6.13;;
3567;SDS011;1798;48.486;9.232;2024-01-06T04:38:10;13.13;;;6.50;;
3567;SDS011;1798;48.486;9.232;2024-01-06T04:40:38;18.63;;;5.63;;
3567;SDS011;1798;48.486;9.232;2024-01-06T04:43:05;11.83;;;5.43;;
3567;SDS011;1798;48.486;9.232;2024-01-06T04:45:32;10.40;;;5.37;;
3567;SDS011;1798;48.486;9.232;2024-01-06T04:47:58;17.03;;;6.10;;
3567;SDS011;1798;48.486;9.232;2024-01-06T04:50:25;10.80;;;4.80;;
3567;SDS011;1798;48.486;9.232;2024-01-06T04:52:52;10.10;;;6.10;;
3567;SDS011;1798;48.486;9.232;2024-01-06T04:55:18;14.87;;;5.33;;
3567;SDS011;1798;48.486;9.232;2024-01-06T04:57:47;7.90;;;5.00;;
3567;SDS011;1798;48.486;9.232;2024-01-06T05:00:14;13.53;;;5.40;;
3567;SDS011;1798;48.486;9.232;2024-01-06T05:02:41;14.20;;;5.50;;
3567;SDS011;1798;48.486;9.232;2024-01-06T05:05:07;12.00;;;4.57;;
3567;SDS011;1798;48.486;9.232;2024-01-06T05:07:34;11.00;;;4.90;;
3567;SDS011;1798;48.486;9.232;2024-01-06T05:10:01;11.57;;;4.63;;
3567;SDS011;1798;48.486;9.232;2024-01-06T05:12:27;9.30;;;4.53;;
3567;SDS011;1798;48.486;9.232;2024-01-06T05:14:55;26.13;;;5.03;;
3567;SDS011;1798;48.486;9.232;2024-01-06T05:17:22;12.03;;;4.50;;
3567;SDS011;1798;48.486;9.232;2024-01-06T05:19:48;13.90;;;4.90;;
3567;SDS011;1798;48.486;9.232;2024-01-06T05:22:15;10.43;;;4.60;;
3567;SDS011;1798;48.486;9.232;2024-01-06T05:24:41;16.03;;;5.57;;
3567;SDS011;1798;48.486;9.232;2024-01-06T05:27:08;8.20;;;4.17;;
3567;SDS011;1798;48.486;9.232;2024-01-06T05:29:34;8.03;;;3.87;;
3567;SDS011;1798;48.486;9.232;2024-01-06T05:32:03;11.40;;;4.43;;
3567;SDS011;1798;48.486;9.232;2024-01-06T05:34:30;13.70;;;4.60;;
3567;SDS011;1798;48.486;9.232;2024-01-06T05:36:56;7.93;;;3.93;;
3567;SDS011;1798;48.486;9.232;2024-01-06T05:39:23;11.23;;;4.70;;
3567;SDS011;1798;48.486;9.232;2024-01-06T05:41:50;10.97;;;4.47;;
3567;SDS011;1798;48.486;9.232;2024-01-06T05:44:17;7.90;;;4.10;;
3567;SDS011;1798;48.486;9.232;2024-01-06T05:46:43;12.20;;;4.47;;
3567;SDS011;1798;48.486;9.232;2024-01-06T05:49:11;5.50;;;3.40;;
3567;SDS011;1798;48.486;9.232;2024-01-06T05:51:43;9.67;;;4.40;;
3567;SDS011;1798;48.486;9.232;2024-01-06T05:54:10;9.13;;;4.40;;
3567;SDS011;1798;48.486;9.232;2024-01-06T05:56:37;17.23;;;4.13;;
3567;SDS011;1798;48.486;9.232;2024-01-06T05:59:03;12.03;;;4.60;;
3567;SDS011;1798;48.486;9.232;2024-01-06T06:01:30;7.70;;;3.57;;
3567;SDS011;1798;48.486;9.232;2024-01-06T06:03:57;12.80;;;4.57;;
3567;SDS011;1798;48.486;9.232;2024-01-06T06:06:25;11.93;;;4.10;;
3567;SDS011;1798;48.486;9.232;2024-01-06T06:08:52;11.67;;;4.00;;
3567;SDS011;1798;48.486;9.232;2024-01-06T06:11:18;14.10;;;4.43;;
3567;SDS011;1798;48.486;9.232;2024-01-06T06:13:45;9.43;;;3.70;;
3567;SDS011;1798;48.486;9.232;2024-01-06T06:16:12;17.27;;;4.50;;
3567;SDS011;1798;48.486;9.232;2024-01-06T06:18:38;10.00;;;3.93;;
3567;SDS011;1798;48.486;9.232;2024-01-06T06:21:05;9.47;;;3.73;;
3567;SDS011;1798;48.486;9.232;2024-01-06T06:23:34;7.17;;;3.70;;
3567;SDS011;1798;48.486;9.232;2024-01-06T06:26:03;5.93;;;3.30;;
3567;SDS011;1798;48.486;9.232;2024-01-06T06:28:31;11.33;;;4.60;;
3567;SDS011;1798;48.486;9.232;2024-01-06T06:30:57;11.90;;;4.63;;
3567;SDS011;1798;48.486;9.232;2024-01-06T06:33:24;18.60;;;5.10;;
3567;SDS011;1798;48.486;9.232;2024-01-06T06:35:50;13.23;;;5.37;;
3567;SDS011;1798;48.486;9.232;2024-01-06T06:38:17;7.03;;;3.80;;
3567;SDS011;1798;48.486;9.232;2024-01-06T06:40:45;9.47;;;4.40;;
3567;SDS011;1798;48.486;9.232;2024-01-06T06:43:12;9.97;;;4.57;;
3567;SDS011;1798;48.486;9.232;2024-01-06T06:45:38;12.17;;;4.20;;
3567;SDS011;1798;48.486;9.232;2024-01-06T06:48:05;16.37;;;4.27;;
3567;SDS011;1798;48.486;9.232;2024-01-06T06:50:33;9.37;;;4.07;;
3567;SDS011;1798;48.486;9.232;2024-01-06T06:52:59;23.00;;;2.90;;
3567;SDS011;1798;48.486;9.232;2024-01-06T06:55:27;5.87;;;3.80;;
3567;SDS011;1798;48.486;9.232;2024-01-06T06:57:55;8.20;;;3.93;;
3567;SDS011;1798;48.486;9.232;2024-01-06T07:00:21;7.50;;;3.47;;
3567;SDS011;1798;48.486;9.232;2024-01-06T07:02:48;10.47;;;3.90;;
3567;SDS011;1798;48.486;9.232;2024-01-06T07:05:15;15.10;;;4.10;;
3567;SDS011;1798;48.486;9.232;2024-01-06T07:07:42;10.33;;;4.10;;
3567;SDS011;1798;48.486;9.232;2024-01-06T07:10:11;5.37;;;3.20;;
3567;SDS011;1798;48.486;9.232;2024-01-06T07:12:38;8.47;;;4.50;;
3567;SDS011;1798;48.486;9.232;2024-01-06T07:15:07;10.03;;;4.00;;
3567;SDS011;1798;48.486;9.232;2024-01-06T07:17:35;8.80;;;3.73;;
3567;SDS011;1798;48.486;9.232;2024-01-06T07:20:01;9.70;;;3.87;;
3567;SDS011;1798;48.486;9.232;2024-01-06T07:22:29;9.60;;;3.83;;
3567;SDS011;1798;48.486;9.232;2024-01-06T07:24:56;9.37;;;4.33;;
3567;SDS011;1798;48.486;9.232;2024-01-06T07:27:23;9.63;;;3.37;;
3567;SDS011;1798;48.486;9.232;2024-01-06T07:29:49;12.60;;;3.90;;
3567;SDS011;1798;48.486;9.232;2024-01-06T07:32:17;19.57;;;5.00;;
3567;SDS011;1798;48.486;9.232;2024-01-06T07:34:44;11.93;;;4.33;;
3567;SDS011;1798;48.486;9.232;2024-01-06T07:37:11;21.27;;;5.20;;
3567;SDS011;1798;48.486;9.232;2024-01-06T07:39:37;13.20;;;4.87;;
3567;SDS011;1798;48.486;9.232;2024-01-06T07:42:04;9.57;;;3.60;;
3567;SDS011;1798;48.486;9.232;2024-01-06T07:44:30;22.30;;;4.97;;
3567;SDS011;1798;48.486;9.232;2024-01-06T07:46:57;6.00;;;3.27;;
3567;SDS011;1798;48.486;9.232;2024-01-06T07:49:25;9.10;;;3.70;;
3567;SDS011;1798;48.486;9.232;2024-01-06T07:51:52;15.53;;;4.00;;
3567;SDS011;1798;48.486;9.232;2024-01-06T07:54:19;5.83;;;3.10;;
3567;SDS011;1798;48.486;9.232;2024-01-06T07:56:46;9.00;;;3.43;;
3567;SDS011;1798;48.486;9.232;2024-01-06T07:59:13;12.70;;;4.70;;
3567;SDS011;1798;48.486;9.232;2024-01-06T08:01:39;16.63;;;4.33;;
3567;SDS011;1798;48.486;9.232;2024-01-06T08:04:07;10.70;;;3.90;;
3567;SDS011;1798;48.486;9.232;2024-01-06T08:06:36;9.53;;;3.77;;
3567;SDS011;1798;48.486;9.232;2024-01-06T08:09:03;13.27;;;4.43;;
3567;SDS011;1798;48.486;9.232;2024-01-06T08:11:29;16.37;;;4.10;;
3567;SDS011;1798;48.486;9.232;2024-01-06T08:13:56;8.40;;;4.87;;
3567;SDS011;1798;48.486;9.232;2024-01-06T08:16:22;6.53;;;3.97;;
3567;SDS011;1798;48.486;9.232;2024-01-06T08:18:49;8.63;;;4.43;;
3567;SDS011;1798;48.486;9.232;2024-01-06T08:21:16;11.10;;;4.90;;
3567;SDS011;1798;48.486;9.232;2024-01-06T08:23:44;17.97;;;6.13;;
3567;SDS011;1798;48.486;9.232;2024-01-06T08:26:10;10.67;;;5.67;;
3567;SDS011;1798;48.486;9.232;2024-01-06T08:28:37;10.43;;;4.97;;
3567;SDS011;1798;48.486;9.232;2024-01-06T08:31:04;12.70;;;4.47;;
3567;SDS011;1798;48.486;9.232;2024-01-06T08:33:31;7.67;;;4.30;;
3567;SDS011;1798;48.486;9.232;2024-01-06T08:35:58;14.43;;;4.50;;
3567;SDS011;1798;48.486;9.232;2024-01-06T08:38:24;11.27;;;4.40;;
3567;SDS011;1798;48.486;9.232;2024-01-06T08:40:52;9.00;;;4.23;;
3567;SDS011;1798;48.486;9.232;2024-01-06T08:43:19;7.20;;;4.10;;
3567;SDS011;1798;48.486;9.232;2024-01-06T08:45:46;16.20;;;4.63;;
3567;SDS011;1798;48.486;9.232;2024-01-06T08:48:13;26.30;;;4.57;;
3567;SDS011;1798;48.486;9.232;2024-01-06T08:50:40;9.43;;;3.67;;
3567;SDS011;1798;48.486;9.232;2024-01-06T08:53:06;12.23;;;5.10;;
3567;SDS011;1798;48.486;9.232;2024-01-06T08:55:33;9.97;;;4.60;;
3567;SDS011;1798;48.486;9.232;2024-01-06T08:58:01;14.73;;;5.23;;
3567;SDS011;1798;48.486;9.232;2024-01-06T09:00:28;18.40;;;4.20;;
3567;SDS011;1798;48.486;9.232;2024-01-06T09:02:54;14.30;;;5.63;;
3567;SDS011;1798;48.486;9.232;2024-01-06T09:05:21;11.37;;;5.33;;
3567;SDS011;1798;48.486;9.232;2024-01-06T09:07:47;14.60;;;4.33;;
3567;SDS011;1798;48.486;9.232;2024-01-06T09:10:15;13.07;;;5.07;;
3567;SDS011;1798;48.486;9.232;2024-01-06T09:12:42;16.50;;;5.87;;
3567;SDS011;1798;48.486;9.232;2024-01-06T09:15:10;11.67;;;5.17;;
3567;SDS011;1798;48.486;9.232;2024-01-06T09:17:37;14.00;;;4.30;;
3567;SDS011;1798;48.486;9.232;2024-01-06T09:20:04;6.57;;;4.00;;
3567;SDS011;1798;48.486;9.232;2024-01-06T09:22:31;11.97;;;4.00;;
3567;SDS011;1798;48.486;9.232;2024-01-06T09:24:58;7.97;;;3.57;;
3567;SDS011;1798;48.486;9.232;2024-01-06T09:27:25;12.93;;;4.80;;
3567;SDS011;1798;48.486;9.232;2024-01-06T09:29:51;11.23;;;3.77;;
3567;SDS011;1798;48.486;9.232;2024-01-06T09:32:19;10.77;;;4.83;;
3567;SDS011;1798;48.486;9.232;2024-01-06T09:34:47;9.83;;;4.03;;
3567;SDS011;1798;48.486;9.232;2024-01-06T09:37:14;9.50;;;4.30;;
3567;SDS011;1798;48.486;9.232;2024-01-06T09:39:41;11.50;;;4.30;;
3567;SDS011;1798;48.486;9.232;2024-01-06T09:42:08;9.03;;;4.50;;
3567;SDS011;1798;48.486;9.232;2024-01-06T09:44:35;8.33;;;4.80;;
3567;SDS011;1798;48.486;9.232;2024-01-06T09:47:02;17.40;;;4.30;;
3567;SDS011;1798;48.486;9.232;2024-01-06T09:49:32;24.43;;;5.10;;
3567;SDS011;1798;48.486;9.232;2024-01-06T09:51:59;12.50;;;4.50;;
3567;SDS011;1798;48.486;9.232;2024-01-06T09:54:26;11.83;;;3.77;;
3567;SDS011;1798;48.486;9.232;2024-01-06T09:56:58;6.33;;;3.27;;
3567;SDS011;1798;48.486;9.232;2024-01-06T09:59:26;11.93;;;4.60;;
3567;SDS011;1798;48.486;9.232;2024-01-06T10:01:54;10.83;;;4.23;;
3567;SDS011;1798;48.486;9.232;2024-01-06T10:04:21;14.67;;;4.27;;
3567;SDS011;1798;48.486;9.232;2024-01-06T10:06:50;9.03;;;4.10;;
3567;SDS011;1798;48.486;9.232;2024-01-06T10:09:16;6.07;;;3.73;;
3567;SDS011;1798;48.486;9.232;2024-01-06T10:11:47;12.60;;;5.57;;
3567;SDS011;1798;48.486;9.232;2024-01-06T10:14:14;15.07;;;5.47;;
3567;SDS011;1798;48.486;9.232;2024-01-06T10:16:40;7.40;;;4.33;;
3567;SDS011;1798;48.486;9.232;2024-01-06T10:19:07;14.17;;;3.47;;
3567;SDS011;1798;48.486;9.232;2024-01-06T10:21:34;7.63;;;3.90;;
3567;SDS011;1798;48.486;9.232;2024-01-06T10:24:05;8.37;;;5.00;;
3567;SDS011;1798;48.486;9.232;2024-01-06T10:26:33;16.23;;;5.30;;
3567;SDS011;1798;48.486;9.232;2024-01-06T10:29:00;10.80;;;4.03;;
3567;SDS011;1798;48.486;9.232;2024-01-06T10:31:27;10.20;;;4.43;;
3567;SDS011;1798;48.486;9.232;2024-01-06T10:33:53;12.80;;;4.90;;
3567;SDS011;1798;48.486;9.232;2024-01-06T10:36:21;18.03;;;5.40;;
3567;SDS011;1798;48.486;9.232;2024-01-06T10:38:49;13.83;;;5.03;;
3567;SDS011;1798;48.486;9.232;2024-01-06T10:41:17;19.73;;;5.97;;
3567;SDS011;1798;48.486;9.232;2024-01-06T10:43:44;10.93;;;4.03;;
3567;SDS011;1798;48.486;9.232;2024-01-06T10:46:12;8.57;;;4.87;;
3567;SDS011;1798;48.486;9.232;2024-01-06T10:48:41;10.57;;;5.60;;
3567;SDS011;1798;48.486;9.232;2024-01-06T10:51:09;8.03;;;4.70;;
3567;SDS011;1798;48.486;9.232;2024-01-06T10:53:36;12.83;;;5.17;;
3567;SDS011;1798;48.486;9.232;2024-01-06T10:56:04;9.10;;;4.27;;
3567;SDS011;1798;48.486;9.232;2024-01-06T10:58:34;16.33;;;5.00;;
3567;SDS011;1798;48.486;9.232;2024-01-06T11:01:07;22.20;;;5.07;;
3567;SDS011;1798;48.486;9.232;2024-01-06T11:03:35;14.33;;;4.70;;
3567;SDS011;1798;48.486;9.232;2024-01-06T11:06:02;9.97;;;4.60;;
3567;SDS011;1798;48.486;9.232;2024-01-06T11:08:30;18.40;;;5.17;;
3567;SDS011;1798;48.486;9.232;2024-01-06T11:10:57;13.93;;;5.30;;
3567;SDS011;1798;48.486;9.232;2024-01-06T11:13:24;9.30;;;3.93;;
3567;SDS011;1798;48.486;9.232;2024-01-06T11:15:52;9.57;;;4.53;;
3567;SDS011;1798;48.486;9.232;2024-01-06T11:21:14;9.83;;;4.27;;
3567;SDS011;1798;48.486;9.232;2024-01-06T11:23:51;9.10;;;3.70;;
3567;SDS011;1798;48.486;9.232;2024-01-06T11:26:49;14.13;;;4.40;;
3567;SDS011;1798;48.486;9.232;2024-01-06T11:29:16;9.30;;;3.77;;
3567;SDS011;1798;48.486;9.232;2024-01-06T11:32:07;22.87;;;4.60;;
3567;SDS011;1798;48.486;9.232;2024-01-06T11:34:51;7.40;;;4.27;;
3567;SDS011;1798;48.486;9.232;2024-01-06T11:37:20;9.33;;;4.27;;
3567;SDS011;1798;48.486;9.232;2024-01-06T11:39:50;7.17;;;4.60;;
3567;SDS011;1798;48.486;9.232;2024-01-06T11:42:18;7.80;;;4.00;;
3567;SDS011;1798;48.486;9.232;2024-01-06T11:44:49;6.93;;;3.70;;
3567;SDS011;1798;48.486;9.232;2024-01-06T11:47:17;15.27;;;5.00;;
3567;SDS011;1798;48.486;9.232;2024-01-06T11:49:48;19.40;;;6.10;;
3567;SDS011;1798;48.486;9.232;2024-01-06T11:52:20;11.57;;;4.93;;
3567;SDS011;1798;48.486;9.232;2024-01-06T11:54:47;13.60;;;5.40;;
3567;SDS011;1798;48.486;9.232;2024-01-06T11:57:15;10.73;;;5.63;;
3567;SDS011;1798;48.486;9.232;2024-01-06T11:59:41;15.13;;;6.07;;
3567;SDS011;1798;48.486;9.232;2024-01-06T12:02:10;12.40;;;5.57;;
3567;SDS011;1798;48.486;9.232;2024-01-06T12:04:38;8.33;;;4.40;;
3567;SDS011;1798;48.486;9.232;2024-01-06T12:07:06;9.87;;;4.97;;
3567;SDS011;1798;48.486;9.232;2024-01-06T12:09:33;8.70;;;4.50;;
3567;SDS011;1798;48.486;9.232;2024-01-06T12:12:01;16.30;;;4.13;;
3567;SDS011;1798;48.486;9.232;2024-01-06T12:14:28;10.63;;;5.00;;
3567;SDS011;1798;48.486;9.232;2024-01-06T12:16:55;6.97;;;3.57;;
3567;SDS011;1798;48.486;9.232;2024-01-06T12:19:27;9.53;;;4.57;;
3567;SDS011;1798;48.486;9.232;2024-01-06T12:21:55;23.43;;;6.73;;
3567;SDS011;1798;48.486;9.232;2024-01-06T12:24:22;16.47;;;6.87;;
3567;SDS011;1798;48.486;9.232;2024-01-06T12:26:49;7.90;;;5.30;;
3567;SDS011;1798;48.486;9.232;2024-01-06T12:29:16;8.67;;;4.77;;
3567;SDS011;1798;48.486;9.232;2024-01-06T12:31:43;14.03;;;6.20;;
3567;SDS011;1798;48.486;9.232;2024-01-06T12:34:10;11.63;;;5.60;;
3567;SDS011;1798;48.486;9.232;2024-01-06T12:36:37;10.43;;;4.73;;
3567;SDS011;1798;48.486;9.232;2024-01-06T12:39:06;13.83;;;4.83;;
3567;SDS011;1798;48.486;9.232;2024-01-06T12:41:38;11.93;;;5.10;;
3567;SDS011;1798;48.486;9.232;2024-01-06T12:44:05;16.40;;;5.97;;
3567;SDS011;1798;48.486;9.232;2024-01-06T12:46:32;13.00;;;5.10;;
3567;SDS011;1798;48.486;9.232;2024-01-06T12:48:59;12.70;;;4.97;;
3567;SDS011;1798;48.486;9.232;2024-01-06T12:51:25;8.50;;;4.07;;
3567;SDS011;1798;48.486;9.232;2024-01-06T12:53:52;8.63;;;4.70;;
3567;SDS011;1798;48.486;9.232;2024-01-06T12:56:20;12.90;;;6.80;;
3567;SDS011;1798;48.486;9.232;2024-01-06T12:58:46;8.07;;;3.53;;
3567;SDS011;1798;48.486;9.232;2024-01-06T13:01:12;9.60;;;5.93;;
3567;SDS011;1798;48.486;9.232;2024-01-06T13:03:39;6.30;;;3.90;;
3567;SDS011;1798;48.486;9.232;2024-01-06T13:06:05;9.60;;;4.20;;
3567;SDS011;1798;48.486;9.232;2024-01-06T13:08:32;7.03;;;3.30;;
3567;SDS011;1798;48.486;9.232;2024-01-06T13:10:59;6.07;;;3.90;;
3567;SDS011;1798;48.486;9.232;2024-01-06T13:13:27;7.13;;;3.80;;
3567;SDS011;1798;48.486;9.232;2024-01-06T13:15:54;7.40;;;3.53;;
3567;SDS011;1798;48.486;9.232;2024-01-06T13:18:21;6.33;;;3.73;;
3567;SDS011;1798;48.486;9.232;2024-01-06T13:20:47;6.00;;;3.40;;
3567;SDS011;1798;48.486;9.232;2024-01-06T13:23:14;8.80;;;3.97;;
3567;SDS011;1798;48.486;9.232;2024-01-06T13:25:41;6.93;;;3.60;;
3567;SDS011;1798;48.486;9.232;2024-01-06T13:28:08;6.00;;;3.60;;
3567;SDS011;1798;48.486;9.232;2024-01-06T13:30:36;6.30;;;3.73;;
3567;SDS011;1798;48.486;9.232;2024-01-06T13:33:04;15.40;;;4.03;;
3567;SDS011;1798;48.486;9.232;2024-01-06T13:35:31;8.30;;;3.87;;
3567;SDS011;1798;48.486;9.232;2024-01-06T13:37:58;7.07;;;4.47;;
3567;SDS011;1798;48.486;9.232;2024-01-06T13:40:25;7.80;;;4.00;;
3567;SDS011;1798;48.486;9.232;2024-01-06T13:42:52;7.60;;;4.00;;
3567;SDS011;1798;48.486;9.232;2024-01-06T13:45:19;7.57;;;3.03;;
3567;SDS011;1798;48.486;9.232;2024-01-06T13:47:47;6.80;;;4.30;;
3567;SDS011;1798;48.486;9.232;2024-01-06T13:50:15;7.97;;;3.53;;
3567;SDS011;1798;48.486;9.232;2024-01-06T13:52:42;8.73;;;4.60;;
3567;SDS011;1798;48.486;9.232;2024-01-06T13:55:10;15.30;;;4.97;;
3567;SDS011;1798;48.486;9.232;2024-01-06T13:57:37;10.27;;;5.53;;
3567;SDS011;1798;48.486;9.232;2024-01-06T14:00:06;8.70;;;4.63;;
3567;SDS011;1798;48.486;9.232;2024-01-06T14:02:33;164.43;;;7.50;;
3567;SDS011;1798;48.486;9.232;2024-01-06T14:05:01;109.70;;;5.10;;
3567;SDS011;1798;48.486;9.232;2024-01-06T14:07:28;10.70;;;3.80;;
3567;SDS011;1798;48.486;9.232;2024-01-06T14:09:55;6.90;;;4.00;;
3567;SDS011;1798;48.486;9.232;2024-01-06T14:12:22;12.97;;;4.47;;
3567;SDS011;1798;48.486;9.232;2024-01-06T14:14:49;33.80;;;4.87;;
3567;SDS011;1798;48.486;9.232;2024-01-06T14:17:16;11.70;;;3.80;;
3567;SDS011;1798;48.486;9.232;2024-01-06T14:19:42;8.07;;;3.37;;
3567;SDS011;1798;48.486;9.232;2024-01-06T14:22:10;40.27;;;6.83;;
3567;SDS011;1798;48.486;9.232;2024-01-06T14:24:37;50.93;;;4.97;;
3567;SDS011;1798;48.486;9.232;2024-01-06T14:27:03;54.13;;;5.97;;
3567;SDS011;1798;48.486;9.232;2024-01-06T14:29:30;23.50;;;5.07;;
3567;SDS011;1798;48.486;9.232;2024-01-06T14:31:56;6.83;;;3.57;;
3567;SDS011;1798;48.486;9.232;2024-01-06T14:34:23;9.80;;;4.13;;
3567;SDS011;1798;48.486;9.232;2024-01-06T14:36:50;9.60;;;4.70;;
3567;SDS011;1798;48.486;9.232;2024-01-06T14:39:18;13.33;;;4.00;;
3567;SDS011;1798;48.486;9.232;2024-01-06T14:41:46;59.13;;;5.00;;
3567;SDS011;1798;48.486;9.232;2024-01-06T14:44:14;29.23;;;5.07;;
3567;SDS011;1798;48.486;9.232;2024-01-06T14:46:40;5.90;;;3.63;;
3567;SDS011;1798;48.486;9.232;2024-01-06T14:49:07;7.57;;;3.77;;
3567;SDS011;1798;48.486;9.232;2024-01-06T14:51:33;6.03;;;3.73;;
3567;SDS011;1798;48.486;9.232;2024-01-06T14:54:00;22.03;;;4.27;;
3567;SDS011;1798;48.486;9.232;2024-01-06T14:56:28;7.23;;;3.60;;
3567;SDS011;1798;48.486;9.232;2024-01-06T14:58:55;11.73;;;3.73;;
3567;SDS011;1798;48.486;9.232;2024-01-06T15:01:22;13.60;;;4.77;;
3567;SDS011;1798;48.486;9.232;2024-01-06T15:03:48;12.20;;;4.00;;
3567;SDS011;1798;48.486;9.232;2024-01-06T15:06:15;23.23;;;4.03;;
3567;SDS011;1798;48.486;9.232;2024-01-06T15:08:42;6.90;;;3.63;;